Amsterdam, Missouri
Current Conditions -  °F | °C
As of 2:53 AM on Wednesday 22 Oct 2014 (Local Time) from KOJC Reporting Station
Overcast Overcast  
Wind Chill: 56°   Ceiling: 4400
Heat Index: 56°   Visibility: 10mi
Dew Point: 46°   Wind: 9mph
Humidity: 69%   Direction: 130°SE
Pressure: 30.12"   Gusts: NA
Location:  38.35°N, 94.59°W
Report Text: KOJC 220753Z AUTO 13008KT 10SM OVC044 13/08 A3012 RMK AO2 SLP194 T01330078
Loading
Personal Weather Stations






























Interactive Weather Map
Tropical Storm Tracking
New forecast layout! Learn more

10-Day Weather Forecast

Advertisements
Track Severe Weather on mobile